sensor_id;sensor_type;location;lat;lon;timestamp;temperature;humidity
71837;DHT22;59686;51.716;7.016;2022-09-12T00:01:59;20.30;72.00
71837;DHT22;59686;51.716;7.016;2022-09-12T00:04:25;20.30;72.00
71837;DHT22;59686;51.716;7.016;2022-09-12T00:06:52;20.20;71.90
71837;DHT22;59686;51.716;7.016;2022-09-12T00:09:18;20.20;71.90
71837;DHT22;59686;51.716;7.016;2022-09-12T00:11:45;20.20;71.80
71837;DHT22;59686;51.716;7.016;2022-09-12T00:14:13;20.20;71.80
71837;DHT22;59686;51.716;7.016;2022-09-12T00:16:39;20.20;71.80
71837;DHT22;59686;51.716;7.016;2022-09-12T00:19:05;20.20;71.70
71837;DHT22;59686;51.716;7.016;2022-09-12T00:21:33;20.20;71.80
71837;DHT22;59686;51.716;7.016;2022-09-12T00:23:59;20.20;71.80
71837;DHT22;59686;51.716;7.016;2022-09-12T00:26:25;20.20;71.80
71837;DHT22;59686;51.716;7.016;2022-09-12T00:28:51;20.20;71.70
71837;DHT22;59686;51.716;7.016;2022-09-12T00:31:19;20.20;71.70
71837;DHT22;59686;51.716;7.016;2022-09-12T00:33:46;20.20;71.70
71837;DHT22;59686;51.716;7.016;2022-09-12T00:36:18;20.10;71.70
71837;DHT22;59686;51.716;7.016;2022-09-12T00:38:44;20.10;71.70
71837;DHT22;59686;51.716;7.016;2022-09-12T00:41:19;20.10;71.70
71837;DHT22;59686;51.716;7.016;2022-09-12T00:43:48;20.10;71.70
71837;DHT22;59686;51.716;7.016;2022-09-12T00:46:40;20.10;71.80
71837;DHT22;59686;51.716;7.016;2022-09-12T00:49:28;20.10;71.80
71837;DHT22;59686;51.716;7.016;2022-09-12T00:52:18;20.10;71.90
71837;DHT22;59686;51.716;7.016;2022-09-12T00:57:32;20.00;71.70
71837;DHT22;59686;51.716;7.016;2022-09-12T01:00:05;20.00;71.80
71837;DHT22;59686;51.716;7.016;2022-09-12T01:02:34;20.00;71.70
71837;DHT22;59686;51.716;7.016;2022-09-12T01:05:00;20.00;71.80
71837;DHT22;59686;51.716;7.016;2022-09-12T01:07:26;20.00;71.70
71837;DHT22;59686;51.716;7.016;2022-09-12T01:09:52;20.00;71.80
71837;DHT22;59686;51.716;7.016;2022-09-12T01:12:18;20.00;71.70
71837;DHT22;59686;51.716;7.016;2022-09-12T01:14:44;20.00;71.70
71837;DHT22;59686;51.716;7.016;2022-09-12T01:17:12;20.00;72.40
71837;DHT22;59686;51.716;7.016;2022-09-12T01:22:58;19.90;71.60
71837;DHT22;59686;51.716;7.016;2022-09-12T01:31:21;19.90;71.60
71837;DHT22;59686;51.716;7.016;2022-09-12T01:39:08;19.80;71.50
71837;DHT22;59686;51.716;7.016;2022-09-12T01:41:51;19.80;71.40
71837;DHT22;59686;51.716;7.016;2022-09-12T01:50:02;19.80;71.30
71837;DHT22;59686;51.716;7.016;2022-09-12T01:52:41;19.80;71.40
71837;DHT22;59686;51.716;7.016;2022-09-12T01:55:29;19.80;71.40
71837;DHT22;59686;51.716;7.016;2022-09-12T02:00:23;19.80;71.40
71837;DHT22;59686;51.716;7.016;2022-09-12T02:03:11;19.70;71.30
71837;DHT22;59686;51.716;7.016;2022-09-12T02:05:43;19.70;71.20
71837;DHT22;59686;51.716;7.016;2022-09-12T02:08:17;19.70;71.20
71837;DHT22;59686;51.716;7.016;2022-09-12T02:18:56;19.60;71.10
71837;DHT22;59686;51.716;7.016;2022-09-12T02:21:25;19.60;71.10
71837;DHT22;59686;51.716;7.016;2022-09-12T02:23:56;19.60;71.10
71837;DHT22;59686;51.716;7.016;2022-09-12T02:26:32;19.60;71.10
71837;DHT22;59686;51.716;7.016;2022-09-12T02:29:06;19.60;71.00
71837;DHT22;59686;51.716;7.016;2022-09-12T02:39:23;19.60;71.00
71837;DHT22;59686;51.716;7.016;2022-09-12T02:41:54;19.60;71.00
71837;DHT22;59686;51.716;7.016;2022-09-12T02:44:20;19.50;70.90
71837;DHT22;59686;51.716;7.016;2022-09-12T02:46:56;19.50;70.80
71837;DHT22;59686;51.716;7.016;2022-09-12T02:49:26;19.50;70.90
71837;DHT22;59686;51.716;7.016;2022-09-12T02:51:52;19.50;70.80
71837;DHT22;59686;51.716;7.016;2022-09-12T02:54:18;19.50;70.80
71837;DHT22;59686;51.716;7.016;2022-09-12T02:56:45;19.50;70.90
71837;DHT22;59686;51.716;7.016;2022-09-12T02:59:13;19.50;70.90
71837;DHT22;59686;51.716;7.016;2022-09-12T03:01:55;19.50;70.80
71837;DHT22;59686;51.716;7.016;2022-09-12T03:04:36;19.50;70.80
71837;DHT22;59686;51.716;7.016;2022-09-12T03:16:18;19.40;70.90
71837;DHT22;59686;51.716;7.016;2022-09-12T03:21:39;19.40;70.90
71837;DHT22;59686;51.716;7.016;2022-09-12T03:24:30;19.40;70.80
71837;DHT22;59686;51.716;7.016;2022-09-12T03:27:11;19.40;70.90
71837;DHT22;59686;51.716;7.016;2022-09-12T03:29:41;19.30;70.90
71837;DHT22;59686;51.716;7.016;2022-09-12T03:32:07;19.30;70.90
71837;DHT22;59686;51.716;7.016;2022-09-12T03:34:33;19.30;70.90
71837;DHT22;59686;51.716;7.016;2022-09-12T03:36:58;19.30;70.90
71837;DHT22;59686;51.716;7.016;2022-09-12T03:39:24;19.30;71.00
71837;DHT22;59686;51.716;7.016;2022-09-12T03:41:52;19.30;71.00
71837;DHT22;59686;51.716;7.016;2022-09-12T03:44:18;19.20;71.00
71837;DHT22;59686;51.716;7.016;2022-09-12T03:46:44;19.20;71.10
71837;DHT22;59686;51.716;7.016;2022-09-12T03:49:10;19.20;71.10
71837;DHT22;59686;51.716;7.016;2022-09-12T03:51:37;19.20;71.10
71837;DHT22;59686;51.716;7.016;2022-09-12T03:54:03;19.20;71.10
71837;DHT22;59686;51.716;7.016;2022-09-12T03:56:29;19.20;71.20
71837;DHT22;59686;51.716;7.016;2022-09-12T03:58:54;19.20;71.10
71837;DHT22;59686;51.716;7.016;2022-09-12T04:01:20;19.20;71.20
71837;DHT22;59686;51.716;7.016;2022-09-12T04:03:48;19.10;71.10
71837;DHT22;59686;51.716;7.016;2022-09-12T04:06:18;19.10;71.10
71837;DHT22;59686;51.716;7.016;2022-09-12T04:08:51;19.10;71.10
71837;DHT22;59686;51.716;7.016;2022-09-12T04:11:28;19.10;71.20
71837;DHT22;59686;51.716;7.016;2022-09-12T04:13:53;19.10;72.00
71837;DHT22;59686;51.716;7.016;2022-09-12T04:16:19;19.10;71.30
71837;DHT22;59686;51.716;7.016;2022-09-12T04:18:45;19.10;71.80
71837;DHT22;59686;51.716;7.016;2022-09-12T04:21:17;19.10;71.30
71837;DHT22;59686;51.716;7.016;2022-09-12T04:23:43;19.00;71.20
71837;DHT22;59686;51.716;7.016;2022-09-12T04:26:09;19.00;71.20
71837;DHT22;59686;51.716;7.016;2022-09-12T04:28:37;19.00;71.30
71837;DHT22;59686;51.716;7.016;2022-09-12T04:31:05;19.00;71.30
71837;DHT22;59686;51.716;7.016;2022-09-12T04:33:32;19.00;71.30
71837;DHT22;59686;51.716;7.016;2022-09-12T04:36:03;19.00;71.30
71837;DHT22;59686;51.716;7.016;2022-09-12T04:38:29;18.90;71.30
71837;DHT22;59686;51.716;7.016;2022-09-12T04:40:55;19.00;71.30
71837;DHT22;59686;51.716;7.016;2022-09-12T04:43:21;18.90;71.30
71837;DHT22;59686;51.716;7.016;2022-09-12T04:45:47;19.00;71.30
71837;DHT22;59686;51.716;7.016;2022-09-12T04:48:12;18.90;71.30
71837;DHT22;59686;51.716;7.016;2022-09-12T04:50:38;18.90;71.20
71837;DHT22;59686;51.716;7.016;2022-09-12T04:53:07;18.90;71.20
71837;DHT22;59686;51.716;7.016;2022-09-12T04:55:34;18.90;71.30
71837;DHT22;59686;51.716;7.016;2022-09-12T04:58:00;18.90;71.30
71837;DHT22;59686;51.716;7.016;2022-09-12T05:00:26;18.90;71.30
71837;DHT22;59686;51.716;7.016;2022-09-12T05:02:52;18.80;71.20
71837;DHT22;59686;51.716;7.016;2022-09-12T05:05:18;18.80;71.10
71837;DHT22;59686;51.716;7.016;2022-09-12T05:07:43;18.80;71.20
71837;DHT22;59686;51.716;7.016;2022-09-12T05:10:09;18.80;71.20
71837;DHT22;59686;51.716;7.016;2022-09-12T05:12:38;18.80;71.20
71837;DHT22;59686;51.716;7.016;2022-09-12T05:15:10;18.80;71.20
71837;DHT22;59686;51.716;7.016;2022-09-12T05:17:36;18.80;71.30
71837;DHT22;59686;51.716;7.016;2022-09-12T05:20:02;18.70;71.30
71837;DHT22;59686;51.716;7.016;2022-09-12T05:22:28;18.80;71.30
71837;DHT22;59686;51.716;7.016;2022-09-12T05:24:53;18.70;71.30
71837;DHT22;59686;51.716;7.016;2022-09-12T05:27:19;18.80;71.40
71837;DHT22;59686;51.716;7.016;2022-09-12T05:29:45;18.80;71.40
71837;DHT22;59686;51.716;7.016;2022-09-12T05:32:10;18.80;71.40
71837;DHT22;59686;51.716;7.016;2022-09-12T05:34:55;18.90;71.60
71837;DHT22;59686;51.716;7.016;2022-09-12T05:37:33;18.70;71.40
71837;DHT22;59686;51.716;7.016;2022-09-12T05:39:58;18.70;71.50
71837;DHT22;59686;51.716;7.016;2022-09-12T05:42:24;18.70;71.60
71837;DHT22;59686;51.716;7.016;2022-09-12T05:44:50;18.70;71.70
71837;DHT22;59686;51.716;7.016;2022-09-12T05:47:15;18.70;71.70
71837;DHT22;59686;51.716;7.016;2022-09-12T05:49:41;18.70;71.70
71837;DHT22;59686;51.716;7.016;2022-09-12T05:52:09;18.70;71.70
71837;DHT22;59686;51.716;7.016;2022-09-12T05:54:35;18.70;71.70
71837;DHT22;59686;51.716;7.016;2022-09-12T05:57:00;18.70;71.80
71837;DHT22;59686;51.716;7.016;2022-09-12T05:59:26;18.70;71.90
71837;DHT22;59686;51.716;7.016;2022-09-12T06:05:21;18.70;71.90
71837;DHT22;59686;51.716;7.016;2022-09-12T06:07:47;18.70;72.00
71837;DHT22;59686;51.716;7.016;2022-09-12T06:10:13;18.70;72.00
71837;DHT22;59686;51.716;7.016;2022-09-12T06:12:40;18.70;72.10
71837;DHT22;59686;51.716;7.016;2022-09-12T06:15:06;18.70;72.90
71837;DHT22;59686;51.716;7.016;2022-09-12T06:17:33;18.70;72.10
71837;DHT22;59686;51.716;7.016;2022-09-12T06:19:59;18.70;72.20
71837;DHT22;59686;51.716;7.016;2022-09-12T06:22:24;18.70;72.20
71837;DHT22;59686;51.716;7.016;2022-09-12T06:24:50;18.70;72.30
71837;DHT22;59686;51.716;7.016;2022-09-12T06:27:16;18.60;72.30
71837;DHT22;59686;51.716;7.016;2022-09-12T06:29:41;18.60;72.30
71837;DHT22;59686;51.716;7.016;2022-09-12T06:32:24;18.70;72.40
71837;DHT22;59686;51.716;7.016;2022-09-12T06:34:50;18.70;72.50
71837;DHT22;59686;51.716;7.016;2022-09-12T06:37:16;18.60;72.40
71837;DHT22;59686;51.716;7.016;2022-09-12T06:39:41;18.70;72.60
71837;DHT22;59686;51.716;7.016;2022-09-12T06:42:07;18.70;72.60
71837;DHT22;59686;51.716;7.016;2022-09-12T06:44:33;18.70;72.60
71837;DHT22;59686;51.716;7.016;2022-09-12T06:46:59;18.70;72.70
71837;DHT22;59686;51.716;7.016;2022-09-12T06:49:24;18.60;72.70
71837;DHT22;59686;51.716;7.016;2022-09-12T06:51:50;18.70;72.80
71837;DHT22;59686;51.716;7.016;2022-09-12T06:54:15;18.70;72.80
71837;DHT22;59686;51.716;7.016;2022-09-12T06:56:43;18.70;72.80
71837;DHT22;59686;51.716;7.016;2022-09-12T06:59:09;18.60;72.80
71837;DHT22;59686;51.716;7.016;2022-09-12T07:01:38;18.70;72.90
71837;DHT22;59686;51.716;7.016;2022-09-12T07:04:04;18.60;73.00
71837;DHT22;59686;51.716;7.016;2022-09-12T07:06:36;18.60;73.00
71837;DHT22;59686;51.716;7.016;2022-09-12T07:09:05;18.70;73.00
71837;DHT22;59686;51.716;7.016;2022-09-12T07:11:32;18.60;73.00
71837;DHT22;59686;51.716;7.016;2022-09-12T07:14:04;18.70;73.10
71837;DHT22;59686;51.716;7.016;2022-09-12T07:16:31;18.60;73.20
71837;DHT22;59686;51.716;7.016;2022-09-12T07:18:58;18.60;73.30
71837;DHT22;59686;51.716;7.016;2022-09-12T07:21:25;18.60;73.30
71837;DHT22;59686;51.716;7.016;2022-09-12T07:23:55;18.60;73.30
71837;DHT22;59686;51.716;7.016;2022-09-12T07:26:28;18.70;73.40
71837;DHT22;59686;51.716;7.016;2022-09-12T07:28:55;18.60;73.30
71837;DHT22;59686;51.716;7.016;2022-09-12T07:31:23;18.70;73.40
71837;DHT22;59686;51.716;7.016;2022-09-12T07:33:49;18.70;73.40
71837;DHT22;59686;51.716;7.016;2022-09-12T07:36:17;18.70;73.40
71837;DHT22;59686;51.716;7.016;2022-09-12T07:38:43;18.70;73.50
71837;DHT22;59686;51.716;7.016;2022-09-12T07:41:13;18.60;73.60
71837;DHT22;59686;51.716;7.016;2022-09-12T07:43:40;18.60;73.60
71837;DHT22;59686;51.716;7.016;2022-09-12T07:46:09;18.70;73.70
71837;DHT22;59686;51.716;7.016;2022-09-12T07:48:36;18.60;73.60
71837;DHT22;59686;51.716;7.016;2022-09-12T07:51:05;18.60;73.60
71837;DHT22;59686;51.716;7.016;2022-09-12T07:53:34;18.70;73.80
71837;DHT22;59686;51.716;7.016;2022-09-12T07:56:00;18.60;73.70
71837;DHT22;59686;51.716;7.016;2022-09-12T07:58:28;18.60;73.70
71837;DHT22;59686;51.716;7.016;2022-09-12T08:01:03;18.60;73.70
71837;DHT22;59686;51.716;7.016;2022-09-12T08:03:29;18.60;73.90
71837;DHT22;59686;51.716;7.016;2022-09-12T08:06:02;18.60;73.90
71837;DHT22;59686;51.716;7.016;2022-09-12T08:08:28;18.60;74.10
71837;DHT22;59686;51.716;7.016;2022-09-12T08:10:58;18.60;74.10
71837;DHT22;59686;51.716;7.016;2022-09-12T08:13:25;18.80;74.20
71837;DHT22;59686;51.716;7.016;2022-09-12T08:15:51;18.60;74.00
71837;DHT22;59686;51.716;7.016;2022-09-12T08:18:17;18.60;74.10
71837;DHT22;59686;51.716;7.016;2022-09-12T08:20:42;18.70;74.20
71837;DHT22;59686;51.716;7.016;2022-09-12T08:23:08;18.60;74.10
71837;DHT22;59686;51.716;7.016;2022-09-12T08:25:33;18.60;74.10
71837;DHT22;59686;51.716;7.016;2022-09-12T08:27:59;18.70;74.20
71837;DHT22;59686;51.716;7.016;2022-09-12T08:30:26;18.60;74.20
71837;DHT22;59686;51.716;7.016;2022-09-12T08:32:51;18.60;74.20
71837;DHT22;59686;51.716;7.016;2022-09-12T08:35:34;18.60;74.20
71837;DHT22;59686;51.716;7.016;2022-09-12T08:38:00;18.60;74.40
71837;DHT22;59686;51.716;7.016;2022-09-12T08:40:26;18.60;74.60
71837;DHT22;59686;51.716;7.016;2022-09-12T08:43:06;18.60;74.50
71837;DHT22;59686;51.716;7.016;2022-09-12T08:45:56;18.60;74.50
71837;DHT22;59686;51.716;7.016;2022-09-12T08:48:22;18.60;74.50
71837;DHT22;59686;51.716;7.016;2022-09-12T08:50:48;18.60;74.50
71837;DHT22;59686;51.716;7.016;2022-09-12T08:53:19;18.60;74.50
71837;DHT22;59686;51.716;7.016;2022-09-12T08:55:57;18.60;74.50
71837;DHT22;59686;51.716;7.016;2022-09-12T08:58:25;18.60;74.50
71837;DHT22;59686;51.716;7.016;2022-09-12T09:01:26;18.60;74.60
71837;DHT22;59686;51.716;7.016;2022-09-12T09:06:57;18.60;74.60
71837;DHT22;59686;51.716;7.016;2022-09-12T09:12:28;18.60;75.00
71837;DHT22;59686;51.716;7.016;2022-09-12T09:18:09;18.60;75.20
71837;DHT22;59686;51.716;7.016;2022-09-12T09:20:44;18.70;75.20
71837;DHT22;59686;51.716;7.016;2022-09-12T09:26:09;18.70;75.20
71837;DHT22;59686;51.716;7.016;2022-09-12T09:28:47;18.60;75.20
71837;DHT22;59686;51.716;7.016;2022-09-12T09:31:21;18.70;75.40
71837;DHT22;59686;51.716;7.016;2022-09-12T09:33:54;18.70;75.50
71837;DHT22;59686;51.716;7.016;2022-09-12T09:38:55;18.60;75.30
71837;DHT22;59686;51.716;7.016;2022-09-12T09:44:29;18.70;75.30
71837;DHT22;59686;51.716;7.016;2022-09-12T09:46:57;18.70;75.40
71837;DHT22;59686;51.716;7.016;2022-09-12T09:49:32;18.70;75.60
71837;DHT22;59686;51.716;7.016;2022-09-12T09:51:59;18.70;75.60
71837;DHT22;59686;51.716;7.016;2022-09-12T09:54:33;18.70;75.70
71837;DHT22;59686;51.716;7.016;2022-09-12T09:57:00;18.70;75.70
71837;DHT22;59686;51.716;7.016;2022-09-12T09:59:28;18.60;75.60
71837;DHT22;59686;51.716;7.016;2022-09-12T10:04:41;18.70;75.70
71837;DHT22;59686;51.716;7.016;2022-09-12T10:07:19;18.70;75.60
71837;DHT22;59686;51.716;7.016;2022-09-12T10:10:15;18.70;75.60
71837;DHT22;59686;51.716;7.016;2022-09-12T10:12:42;18.80;75.60
71837;DHT22;59686;51.716;7.016;2022-09-12T10:15:25;18.70;75.50
71837;DHT22;59686;51.716;7.016;2022-09-12T10:17:51;18.80;75.50
71837;DHT22;59686;51.716;7.016;2022-09-12T10:23:33;18.80;75.60
71837;DHT22;59686;51.716;7.016;2022-09-12T10:26:04;18.80;75.40
71837;DHT22;59686;51.716;7.016;2022-09-12T10:28:42;18.80;75.40
71837;DHT22;59686;51.716;7.016;2022-09-12T10:31:13;18.90;75.40
71837;DHT22;59686;51.716;7.016;2022-09-12T10:33:43;18.90;75.30
71837;DHT22;59686;51.716;7.016;2022-09-12T10:36:11;18.90;75.30
71837;DHT22;59686;51.716;7.016;2022-09-12T10:38:37;18.90;75.30
71837;DHT22;59686;51.716;7.016;2022-09-12T10:41:08;18.90;75.20
71837;DHT22;59686;51.716;7.016;2022-09-12T10:43:36;18.90;75.20
71837;DHT22;59686;51.716;7.016;2022-09-12T10:48:51;19.00;75.10
71837;DHT22;59686;51.716;7.016;2022-09-12T10:51:36;19.00;75.10
71837;DHT22;59686;51.716;7.016;2022-09-12T10:54:03;19.00;75.10
71837;DHT22;59686;51.716;7.016;2022-09-12T10:56:42;19.00;75.00
71837;DHT22;59686;51.716;7.016;2022-09-12T11:01:45;19.00;75.10
71837;DHT22;59686;51.716;7.016;2022-09-12T11:04:40;19.00;74.90
71837;DHT22;59686;51.716;7.016;2022-09-12T11:18:59;19.10;74.90
71837;DHT22;59686;51.716;7.016;2022-09-12T11:21:31;19.10;74.90
71837;DHT22;59686;51.716;7.016;2022-09-12T11:26:55;19.20;74.70
71837;DHT22;59686;51.716;7.016;2022-09-12T11:43:47;19.30;74.50
71837;DHT22;59686;51.716;7.016;2022-09-12T11:54:20;19.30;74.40
71837;DHT22;59686;51.716;7.016;2022-09-12T11:56:52;19.30;74.30
71837;DHT22;59686;51.716;7.016;2022-09-12T11:59:39;19.30;74.10
71837;DHT22;59686;51.716;7.016;2022-09-12T12:02:15;19.30;74.10
71837;DHT22;59686;51.716;7.016;2022-09-12T12:07:38;19.30;74.10
71837;DHT22;59686;51.716;7.016;2022-09-12T12:10:06;19.40;73.90
71837;DHT22;59686;51.716;7.016;2022-09-12T12:12:45;19.40;73.80
71837;DHT22;59686;51.716;7.016;2022-09-12T12:15:15;19.30;73.60
71837;DHT22;59686;51.716;7.016;2022-09-12T12:17:42;19.40;73.60
71837;DHT22;59686;51.716;7.016;2022-09-12T12:20:15;19.40;73.60
71837;DHT22;59686;51.716;7.016;2022-09-12T12:22:55;19.50;73.50
71837;DHT22;59686;51.716;7.016;2022-09-12T12:25:50;19.50;73.40
71837;DHT22;59686;51.716;7.016;2022-09-12T12:31:06;19.50;73.30
71837;DHT22;59686;51.716;7.016;2022-09-12T12:38:36;19.60;72.50
71837;DHT22;59686;51.716;7.016;2022-09-12T12:43:50;19.70;72.30
71837;DHT22;59686;51.716;7.016;2022-09-12T12:46:19;19.70;72.40
71837;DHT22;59686;51.716;7.016;2022-09-12T12:48:46;19.80;72.30
71837;DHT22;59686;51.716;7.016;2022-09-12T12:51:35;19.80;72.10
71837;DHT22;59686;51.716;7.016;2022-09-12T12:59:44;19.90;71.90
71837;DHT22;59686;51.716;7.016;2022-09-12T13:02:28;19.90;71.90
71837;DHT22;59686;51.716;7.016;2022-09-12T13:04:57;19.90;71.90
71837;DHT22;59686;51.716;7.016;2022-09-12T13:07:42;19.90;71.70
71837;DHT22;59686;51.716;7.016;2022-09-12T13:10:21;19.90;71.60
71837;DHT22;59686;51.716;7.016;2022-09-12T13:12:49;20.00;71.70
71837;DHT22;59686;51.716;7.016;2022-09-12T13:18:05;20.10;71.40
71837;DHT22;59686;51.716;7.016;2022-09-12T13:20:34;20.00;71.30
71837;DHT22;59686;51.716;7.016;2022-09-12T13:23:02;20.10;71.20
71837;DHT22;59686;51.716;7.016;2022-09-12T13:25:35;20.10;71.00
71837;DHT22;59686;51.716;7.016;2022-09-12T13:30:58;20.20;70.60
71837;DHT22;59686;51.716;7.016;2022-09-12T13:39:10;20.20;70.60
71837;DHT22;59686;51.716;7.016;2022-09-12T13:44:23;20.30;70.60
71837;DHT22;59686;51.716;7.016;2022-09-12T13:46:52;20.40;69.20
71837;DHT22;59686;51.716;7.016;2022-09-12T13:52:01;20.70;67.00
71837;DHT22;59686;51.716;7.016;2022-09-12T13:54:27;20.80;65.80
71837;DHT22;59686;51.716;7.016;2022-09-12T13:56:53;21.00;64.90
71837;DHT22;59686;51.716;7.016;2022-09-12T13:59:19;21.00;64.30
71837;DHT22;59686;51.716;7.016;2022-09-12T14:01:46;21.10;64.20
71837;DHT22;59686;51.716;7.016;2022-09-12T14:04:25;21.20;64.00
71837;DHT22;59686;51.716;7.016;2022-09-12T14:07:19;21.20;63.80
71837;DHT22;59686;51.716;7.016;2022-09-12T14:09:57;21.30;63.70
71837;DHT22;59686;51.716;7.016;2022-09-12T14:12:36;21.40;63.00
71837;DHT22;59686;51.716;7.016;2022-09-12T14:15:05;21.40;63.20
71837;DHT22;59686;51.716;7.016;2022-09-12T14:17:36;21.40;63.20
71837;DHT22;59686;51.716;7.016;2022-09-12T14:20:16;21.50;62.80
71837;DHT22;59686;51.716;7.016;2022-09-12T14:22:43;21.50;63.00
71837;DHT22;59686;51.716;7.016;2022-09-12T14:25:23;21.50;62.80
71837;DHT22;59686;51.716;7.016;2022-09-12T14:27:54;21.60;63.00
71837;DHT22;59686;51.716;7.016;2022-09-12T14:30:28;21.50;62.30
71837;DHT22;59686;51.716;7.016;2022-09-12T14:35:51;21.70;62.10
71837;DHT22;59686;51.716;7.016;2022-09-12T14:40:57;21.80;62.00
71837;DHT22;59686;51.716;7.016;2022-09-12T14:43:29;21.80;61.80
71837;DHT22;59686;51.716;7.016;2022-09-12T14:46:04;21.80;60.70
71837;DHT22;59686;51.716;7.016;2022-09-12T14:48:35;21.80;60.60
71837;DHT22;59686;51.716;7.016;2022-09-12T14:51:02;21.70;60.30
71837;DHT22;59686;51.716;7.016;2022-09-12T14:53:34;21.80;60.50
71837;DHT22;59686;51.716;7.016;2022-09-12T14:56:07;21.90;60.50
71837;DHT22;59686;51.716;7.016;2022-09-12T14:58:34;22.00;60.30
71837;DHT22;59686;51.716;7.016;2022-09-12T15:01:22;21.90;60.00
71837;DHT22;59686;51.716;7.016;2022-09-12T15:03:51;22.00;60.50
71837;DHT22;59686;51.716;7.016;2022-09-12T15:06:30;22.00;59.60
71837;DHT22;59686;51.716;7.016;2022-09-12T15:08:59;22.00;59.40
71837;DHT22;59686;51.716;7.016;2022-09-12T15:11:26;22.00;59.30
71837;DHT22;59686;51.716;7.016;2022-09-12T15:13:52;22.10;59.10
71837;DHT22;59686;51.716;7.016;2022-09-12T15:16:18;22.10;58.70
71837;DHT22;59686;51.716;7.016;2022-09-12T15:18:43;22.10;58.10
71837;DHT22;59686;51.716;7.016;2022-09-12T15:21:23;22.20;57.80
71837;DHT22;59686;51.716;7.016;2022-09-12T15:23:50;22.20;57.90
71837;DHT22;59686;51.716;7.016;2022-09-12T15:26:21;22.20;58.30
71837;DHT22;59686;51.716;7.016;2022-09-12T15:28:48;22.20;58.50
71837;DHT22;59686;51.716;7.016;2022-09-12T15:31:28;22.30;58.60
71837;DHT22;59686;51.716;7.016;2022-09-12T15:33:56;22.30;58.30
71837;DHT22;59686;51.716;7.016;2022-09-12T15:36:22;22.30;58.30
71837;DHT22;59686;51.716;7.016;2022-09-12T15:38:49;22.30;57.90
71837;DHT22;59686;51.716;7.016;2022-09-12T15:41:35;22.40;57.60
71837;DHT22;59686;51.716;7.016;2022-09-12T15:44:06;22.40;57.50
71837;DHT22;59686;51.716;7.016;2022-09-12T15:46:34;22.40;57.70
71837;DHT22;59686;51.716;7.016;2022-09-12T15:49:00;22.40;57.90
71837;DHT22;59686;51.716;7.016;2022-09-12T15:51:41;22.50;57.80
71837;DHT22;59686;51.716;7.016;2022-09-12T15:54:11;22.50;57.80
71837;DHT22;59686;51.716;7.016;2022-09-12T15:56:38;22.50;58.20
71837;DHT22;59686;51.716;7.016;2022-09-12T15:59:03;22.50;58.00
71837;DHT22;59686;51.716;7.016;2022-09-12T16:01:30;22.50;58.20
71837;DHT22;59686;51.716;7.016;2022-09-12T16:03:55;22.50;58.40
71837;DHT22;59686;51.716;7.016;2022-09-12T16:06:22;22.50;57.50
71837;DHT22;59686;51.716;7.016;2022-09-12T16:08:48;22.60;57.30
71837;DHT22;59686;51.716;7.016;2022-09-12T16:11:24;22.50;57.60
71837;DHT22;59686;51.716;7.016;2022-09-12T16:13:54;22.50;57.20
71837;DHT22;59686;51.716;7.016;2022-09-12T16:16:21;22.50;57.50
71837;DHT22;59686;51.716;7.016;2022-09-12T16:18:46;22.40;57.50
71837;DHT22;59686;51.716;7.016;2022-09-12T16:21:12;22.50;57.60
71837;DHT22;59686;51.716;7.016;2022-09-12T16:23:38;22.40;57.30
71837;DHT22;59686;51.716;7.016;2022-09-12T16:26:06;22.40;57.20
71837;DHT22;59686;51.716;7.016;2022-09-12T16:28:32;22.40;57.20
71837;DHT22;59686;51.716;7.016;2022-09-12T16:31:03;22.40;57.30
71837;DHT22;59686;51.716;7.016;2022-09-12T16:33:44;22.40;57.30
71837;DHT22;59686;51.716;7.016;2022-09-12T16:36:12;22.50;57.50
71837;DHT22;59686;51.716;7.016;2022-09-12T16:38:45;22.40;57.50
71837;DHT22;59686;51.716;7.016;2022-09-12T16:41:11;22.50;57.60
71837;DHT22;59686;51.716;7.016;2022-09-12T16:43:37;22.50;57.80
71837;DHT22;59686;51.716;7.016;2022-09-12T16:46:09;22.50;57.80
71837;DHT22;59686;51.716;7.016;2022-09-12T16:48:35;22.60;58.10
71837;DHT22;59686;51.716;7.016;2022-09-12T16:51:03;22.60;58.10
71837;DHT22;59686;51.716;7.016;2022-09-12T16:53:34;22.60;58.00
71837;DHT22;59686;51.716;7.016;2022-09-12T16:56:00;22.60;58.10
71837;DHT22;59686;51.716;7.016;2022-09-12T16:58:26;22.60;58.20
71837;DHT22;59686;51.716;7.016;2022-09-12T17:01:00;22.50;58.40
71837;DHT22;59686;51.716;7.016;2022-09-12T17:03:26;22.60;58.50
71837;DHT22;59686;51.716;7.016;2022-09-12T17:06:10;22.60;58.70
71837;DHT22;59686;51.716;7.016;2022-09-12T17:08:41;22.50;58.80
71837;DHT22;59686;51.716;7.016;2022-09-12T17:11:21;22.50;58.90
71837;DHT22;59686;51.716;7.016;2022-09-12T17:14:03;22.50;59.10
71837;DHT22;59686;51.716;7.016;2022-09-12T17:16:31;22.40;59.80
71837;DHT22;59686;51.716;7.016;2022-09-12T17:18:57;22.50;59.60
71837;DHT22;59686;51.716;7.016;2022-09-12T17:21:22;22.50;59.70
71837;DHT22;59686;51.716;7.016;2022-09-12T17:23:49;22.40;59.40
71837;DHT22;59686;51.716;7.016;2022-09-12T17:26:15;22.40;59.50
71837;DHT22;59686;51.716;7.016;2022-09-12T17:28:40;22.40;59.60
71837;DHT22;59686;51.716;7.016;2022-09-12T17:31:08;22.40;59.80
71837;DHT22;59686;51.716;7.016;2022-09-12T17:33:35;22.30;59.90
71837;DHT22;59686;51.716;7.016;2022-09-12T17:36:06;22.30;60.10
71837;DHT22;59686;51.716;7.016;2022-09-12T17:38:34;22.30;60.40
71837;DHT22;59686;51.716;7.016;2022-09-12T17:41:13;22.30;60.70
71837;DHT22;59686;51.716;7.016;2022-09-12T17:43:49;22.30;61.10
71837;DHT22;59686;51.716;7.016;2022-09-12T17:46:19;22.30;61.90
71837;DHT22;59686;51.716;7.016;2022-09-12T17:48:53;22.20;62.10
71837;DHT22;59686;51.716;7.016;2022-09-12T17:51:20;22.20;62.50
71837;DHT22;59686;51.716;7.016;2022-09-12T17:53:46;22.20;62.90
71837;DHT22;59686;51.716;7.016;2022-09-12T17:56:12;22.20;63.30
71837;DHT22;59686;51.716;7.016;2022-09-12T17:58:39;22.20;63.60
71837;DHT22;59686;51.716;7.016;2022-09-12T18:01:14;22.20;63.90
71837;DHT22;59686;51.716;7.016;2022-09-12T18:03:59;22.20;64.10
71837;DHT22;59686;51.716;7.016;2022-09-12T18:06:26;22.20;64.30
71837;DHT22;59686;51.716;7.016;2022-09-12T18:08:52;22.20;64.60
71837;DHT22;59686;51.716;7.016;2022-09-12T18:11:18;22.20;64.70
71837;DHT22;59686;51.716;7.016;2022-09-12T18:13:44;22.20;64.90
71837;DHT22;59686;51.716;7.016;2022-09-12T18:16:11;22.20;65.00
71837;DHT22;59686;51.716;7.016;2022-09-12T18:18:38;22.20;65.10
71837;DHT22;59686;51.716;7.016;2022-09-12T18:21:05;22.20;65.20
71837;DHT22;59686;51.716;7.016;2022-09-12T18:23:31;22.20;65.40
71837;DHT22;59686;51.716;7.016;2022-09-12T18:26:02;22.20;65.60
71837;DHT22;59686;51.716;7.016;2022-09-12T18:28:28;22.20;65.60
71837;DHT22;59686;51.716;7.016;2022-09-12T18:30:55;22.20;65.70
71837;DHT22;59686;51.716;7.016;2022-09-12T18:33:21;22.20;65.70